Terminal Aerodrome Forecast
Issued by NWS

Current Version | Previous Version | Text Only | Print | Product List | Glossary Off
Versions: 1 2 3 4 5 6 7 8 9 10 11 12 13 14 15 16 17 18 19 20 21 22 23 24 25 26

249
FTUS41 KRLX 130309 AAA
TAFCKB
TAF AMD
KCKB 130309Z 1303/1324 30013G22KT P6SM -SHSN BKN050
      TEMPO 1303/1304 3SM -SN OVC030
     FM130800 29010G17KT P6SM BKN035
     FM131600 26009G16KT P6SM BKN090
     FM132000 22007KT P6SM BKN050=

USA.gov is the U.S. government's official web portal to all federal, state and local government web resources and services.